sensor_id;sensor_type;location;lat;lon;timestamp;P1;durP1;ratioP1;P2;durP2;ratioP2
50205;SDS011;36098;48.390;10.856;2022-12-20T00:01:21;8.80;;;6.03;;
50205;SDS011;36098;48.390;10.856;2022-12-20T00:03:49;7.38;;;5.57;;
50205;SDS011;36098;48.390;10.856;2022-12-20T00:06:15;7.38;;;5.47;;
50205;SDS011;36098;48.390;10.856;2022-12-20T00:08:41;8.85;;;6.13;;
50205;SDS011;36098;48.390;10.856;2022-12-20T00:11:07;7.88;;;5.70;;
50205;SDS011;36098;48.390;10.856;2022-12-20T00:13:33;8.40;;;6.00;;
50205;SDS011;36098;48.390;10.856;2022-12-20T00:16:08;7.88;;;5.88;;
50205;SDS011;36098;48.390;10.856;2022-12-20T00:18:36;9.32;;;5.72;;
50205;SDS011;36098;48.390;10.856;2022-12-20T00:21:04;7.82;;;5.53;;
50205;SDS011;36098;48.390;10.856;2022-12-20T00:23:31;8.23;;;5.82;;
50205;SDS011;36098;48.390;10.856;2022-12-20T00:26:03;8.15;;;5.72;;
50205;SDS011;36098;48.390;10.856;2022-12-20T00:28:34;7.90;;;5.70;;
50205;SDS011;36098;48.390;10.856;2022-12-20T00:31:00;7.53;;;5.32;;
50205;SDS011;36098;48.390;10.856;2022-12-20T00:33:27;8.30;;;5.50;;
50205;SDS011;36098;48.390;10.856;2022-12-20T00:35:55;8.32;;;5.40;;
50205;SDS011;36098;48.390;10.856;2022-12-20T00:38:22;7.97;;;5.80;;
50205;SDS011;36098;48.390;10.856;2022-12-20T00:40:58;9.07;;;6.18;;
50205;SDS011;36098;48.390;10.856;2022-12-20T00:43:27;6.57;;;5.20;;
50205;SDS011;36098;48.390;10.856;2022-12-20T00:45:52;7.60;;;5.80;;
50205;SDS011;36098;48.390;10.856;2022-12-20T00:48:17;7.30;;;5.35;;
50205;SDS011;36098;48.390;10.856;2022-12-20T00:50:43;9.27;;;6.10;;
50205;SDS011;36098;48.390;10.856;2022-12-20T00:53:08;9.27;;;5.82;;
50205;SDS011;36098;48.390;10.856;2022-12-20T00:55:34;7.60;;;5.70;;
50205;SDS011;36098;48.390;10.856;2022-12-20T00:58:04;7.65;;;5.60;;
50205;SDS011;36098;48.390;10.856;2022-12-20T01:00:29;8.52;;;5.53;;
50205;SDS011;36098;48.390;10.856;2022-12-20T01:02:55;7.88;;;5.78;;
50205;SDS011;36098;48.390;10.856;2022-12-20T01:05:20;7.50;;;5.70;;
50205;SDS011;36098;48.390;10.856;2022-12-20T01:07:45;8.15;;;5.40;;
50205;SDS011;36098;48.390;10.856;2022-12-20T01:10:10;9.45;;;5.93;;
50205;SDS011;36098;48.390;10.856;2022-12-20T01:12:36;8.73;;;5.72;;
50205;SDS011;36098;48.390;10.856;2022-12-20T01:15:01;8.40;;;6.30;;
50205;SDS011;36098;48.390;10.856;2022-12-20T01:17:27;7.93;;;5.72;;
50205;SDS011;36098;48.390;10.856;2022-12-20T01:19:52;7.75;;;5.38;;
50205;SDS011;36098;48.390;10.856;2022-12-20T01:22:17;7.82;;;5.63;;
50205;SDS011;36098;48.390;10.856;2022-12-20T01:24:42;7.78;;;5.53;;
50205;SDS011;36098;48.390;10.856;2022-12-20T01:27:08;7.38;;;5.82;;
50205;SDS011;36098;48.390;10.856;2022-12-20T01:29:33;7.30;;;5.32;;
50205;SDS011;36098;48.390;10.856;2022-12-20T01:31:58;7.05;;;5.43;;
50205;SDS011;36098;48.390;10.856;2022-12-20T01:34:24;7.97;;;5.60;;
50205;SDS011;36098;48.390;10.856;2022-12-20T01:36:49;7.80;;;5.70;;
50205;SDS011;36098;48.390;10.856;2022-12-20T01:39:15;8.05;;;6.10;;
50205;SDS011;36098;48.390;10.856;2022-12-20T01:41:42;9.00;;;5.38;;
50205;SDS011;36098;48.390;10.856;2022-12-20T01:46:43;7.80;;;5.22;;
50205;SDS011;36098;48.390;10.856;2022-12-20T01:49:15;6.53;;;5.18;;
50205;SDS011;36098;48.390;10.856;2022-12-20T01:51:48;8.10;;;5.38;;
50205;SDS011;36098;48.390;10.856;2022-12-20T01:56:53;7.50;;;4.78;;
50205;SDS011;36098;48.390;10.856;2022-12-20T01:59:22;6.88;;;5.30;;
50205;SDS011;36098;48.390;10.856;2022-12-20T02:01:49;7.40;;;4.88;;
50205;SDS011;36098;48.390;10.856;2022-12-20T02:04:14;7.20;;;5.28;;
50205;SDS011;36098;48.390;10.856;2022-12-20T02:06:40;6.75;;;4.90;;
50205;SDS011;36098;48.390;10.856;2022-12-20T02:09:05;7.13;;;5.28;;
50205;SDS011;36098;48.390;10.856;2022-12-20T02:11:37;7.32;;;5.05;;
50205;SDS011;36098;48.390;10.856;2022-12-20T02:19:53;8.30;;;5.20;;
50205;SDS011;36098;48.390;10.856;2022-12-20T02:23:03;6.57;;;5.03;;
50205;SDS011;36098;48.390;10.856;2022-12-20T02:25:42;7.25;;;5.18;;
50205;SDS011;36098;48.390;10.856;2022-12-20T02:28:38;7.00;;;4.88;;
50205;SDS011;36098;48.390;10.856;2022-12-20T02:31:16;7.55;;;5.45;;
50205;SDS011;36098;48.390;10.856;2022-12-20T02:33:45;6.75;;;4.65;;
50205;SDS011;36098;48.390;10.856;2022-12-20T02:36:16;6.43;;;5.03;;
50205;SDS011;36098;48.390;10.856;2022-12-20T02:38:42;6.45;;;5.10;;
50205;SDS011;36098;48.390;10.856;2022-12-20T02:41:16;6.22;;;4.72;;
50205;SDS011;36098;48.390;10.856;2022-12-20T02:44:08;7.30;;;5.05;;
50205;SDS011;36098;48.390;10.856;2022-12-20T02:46:59;6.15;;;5.07;;
50205;SDS011;36098;48.390;10.856;2022-12-20T02:49:28;6.25;;;5.13;;
50205;SDS011;36098;48.390;10.856;2022-12-20T02:51:56;7.47;;;4.93;;
50205;SDS011;36098;48.390;10.856;2022-12-20T02:54:23;6.07;;;5.05;;
50205;SDS011;36098;48.390;10.856;2022-12-20T02:57:00;6.35;;;5.10;;
50205;SDS011;36098;48.390;10.856;2022-12-20T02:59:37;7.03;;;5.00;;
50205;SDS011;36098;48.390;10.856;2022-12-20T03:02:25;6.13;;;4.85;;
50205;SDS011;36098;48.390;10.856;2022-12-20T03:04:51;6.35;;;4.88;;
50205;SDS011;36098;48.390;10.856;2022-12-20T03:07:17;6.25;;;4.70;;
50205;SDS011;36098;48.390;10.856;2022-12-20T03:09:43;6.72;;;4.75;;
50205;SDS011;36098;48.390;10.856;2022-12-20T03:12:10;6.63;;;4.82;;
50205;SDS011;36098;48.390;10.856;2022-12-20T03:14:36;6.70;;;4.82;;
50205;SDS011;36098;48.390;10.856;2022-12-20T03:17:02;6.65;;;4.57;;
50205;SDS011;36098;48.390;10.856;2022-12-20T03:19:28;6.20;;;4.47;;
50205;SDS011;36098;48.390;10.856;2022-12-20T03:21:54;6.30;;;4.60;;
50205;SDS011;36098;48.390;10.856;2022-12-20T03:24:19;6.28;;;4.55;;
50205;SDS011;36098;48.390;10.856;2022-12-20T03:26:44;5.88;;;4.57;;
50205;SDS011;36098;48.390;10.856;2022-12-20T03:29:10;7.57;;;4.70;;
50205;SDS011;36098;48.390;10.856;2022-12-20T03:31:35;6.90;;;4.70;;
50205;SDS011;36098;48.390;10.856;2022-12-20T03:34:01;5.95;;;4.30;;
50205;SDS011;36098;48.390;10.856;2022-12-20T03:36:27;6.93;;;4.80;;
50205;SDS011;36098;48.390;10.856;2022-12-20T03:38:52;6.25;;;4.72;;
50205;SDS011;36098;48.390;10.856;2022-12-20T03:41:19;7.20;;;4.82;;
50205;SDS011;36098;48.390;10.856;2022-12-20T03:43:45;6.38;;;4.55;;
50205;SDS011;36098;48.390;10.856;2022-12-20T03:46:11;5.70;;;4.40;;
50205;SDS011;36098;48.390;10.856;2022-12-20T03:48:37;5.85;;;4.50;;
50205;SDS011;36098;48.390;10.856;2022-12-20T03:51:02;5.50;;;4.40;;
50205;SDS011;36098;48.390;10.856;2022-12-20T03:53:28;5.15;;;4.43;;
50205;SDS011;36098;48.390;10.856;2022-12-20T03:55:53;6.05;;;4.63;;
50205;SDS011;36098;48.390;10.856;2022-12-20T03:58:19;5.97;;;4.60;;
50205;SDS011;36098;48.390;10.856;2022-12-20T04:00:44;5.82;;;4.30;;
50205;SDS011;36098;48.390;10.856;2022-12-20T04:03:09;6.10;;;4.88;;
50205;SDS011;36098;48.390;10.856;2022-12-20T04:05:34;5.47;;;4.30;;
50205;SDS011;36098;48.390;10.856;2022-12-20T04:08:00;6.07;;;4.38;;
50205;SDS011;36098;48.390;10.856;2022-12-20T04:10:25;6.03;;;4.32;;
50205;SDS011;36098;48.390;10.856;2022-12-20T04:12:51;6.68;;;4.35;;
50205;SDS011;36098;48.390;10.856;2022-12-20T04:15:16;5.90;;;4.00;;
50205;SDS011;36098;48.390;10.856;2022-12-20T04:17:42;6.97;;;4.78;;
50205;SDS011;36098;48.390;10.856;2022-12-20T04:20:09;6.65;;;4.55;;
50205;SDS011;36098;48.390;10.856;2022-12-20T04:22:48;5.70;;;4.55;;
50205;SDS011;36098;48.390;10.856;2022-12-20T04:25:16;5.90;;;4.70;;
50205;SDS011;36098;48.390;10.856;2022-12-20T04:27:43;5.93;;;4.40;;
50205;SDS011;36098;48.390;10.856;2022-12-20T04:30:08;5.93;;;4.35;;
50205;SDS011;36098;48.390;10.856;2022-12-20T04:32:34;4.60;;;4.15;;
50205;SDS011;36098;48.390;10.856;2022-12-20T04:34:59;5.68;;;4.00;;
50205;SDS011;36098;48.390;10.856;2022-12-20T04:37:26;5.50;;;4.20;;
50205;SDS011;36098;48.390;10.856;2022-12-20T04:39:51;5.03;;;3.97;;
50205;SDS011;36098;48.390;10.856;2022-12-20T04:42:16;5.22;;;4.13;;
50205;SDS011;36098;48.390;10.856;2022-12-20T04:44:41;5.95;;;4.47;;
50205;SDS011;36098;48.390;10.856;2022-12-20T04:47:07;5.78;;;4.28;;
50205;SDS011;36098;48.390;10.856;2022-12-20T04:49:34;5.57;;;4.25;;
50205;SDS011;36098;48.390;10.856;2022-12-20T04:51:59;5.72;;;4.28;;
50205;SDS011;36098;48.390;10.856;2022-12-20T04:54:44;5.65;;;4.18;;
50205;SDS011;36098;48.390;10.856;2022-12-20T04:57:10;5.28;;;4.20;;
50205;SDS011;36098;48.390;10.856;2022-12-20T04:59:35;6.00;;;4.13;;
50205;SDS011;36098;48.390;10.856;2022-12-20T05:02:00;6.10;;;4.28;;
50205;SDS011;36098;48.390;10.856;2022-12-20T05:04:26;4.57;;;4.00;;
50205;SDS011;36098;48.390;10.856;2022-12-20T05:06:52;5.10;;;3.88;;
50205;SDS011;36098;48.390;10.856;2022-12-20T05:09:17;4.60;;;3.88;;
50205;SDS011;36098;48.390;10.856;2022-12-20T05:11:42;5.28;;;4.18;;
50205;SDS011;36098;48.390;10.856;2022-12-20T05:14:07;5.20;;;3.92;;
50205;SDS011;36098;48.390;10.856;2022-12-20T05:16:33;5.03;;;4.00;;
50205;SDS011;36098;48.390;10.856;2022-12-20T05:18:58;4.22;;;3.50;;
50205;SDS011;36098;48.390;10.856;2022-12-20T05:21:23;6.28;;;4.40;;
50205;SDS011;36098;48.390;10.856;2022-12-20T05:24:08;4.82;;;3.97;;
50205;SDS011;36098;48.390;10.856;2022-12-20T05:26:52;4.93;;;3.80;;
50205;SDS011;36098;48.390;10.856;2022-12-20T05:29:18;5.00;;;3.67;;
50205;SDS011;36098;48.390;10.856;2022-12-20T05:31:43;6.65;;;4.28;;
50205;SDS011;36098;48.390;10.856;2022-12-20T05:34:09;4.75;;;3.67;;
50205;SDS011;36098;48.390;10.856;2022-12-20T05:36:34;4.72;;;3.67;;
50205;SDS011;36098;48.390;10.856;2022-12-20T05:38:59;5.78;;;4.03;;
50205;SDS011;36098;48.390;10.856;2022-12-20T05:41:24;5.00;;;3.70;;
50205;SDS011;36098;48.390;10.856;2022-12-20T05:43:50;4.60;;;3.53;;
50205;SDS011;36098;48.390;10.856;2022-12-20T05:46:15;4.40;;;3.70;;
50205;SDS011;36098;48.390;10.856;2022-12-20T05:48:40;4.57;;;3.47;;
50205;SDS011;36098;48.390;10.856;2022-12-20T05:51:06;5.10;;;3.78;;
50205;SDS011;36098;48.390;10.856;2022-12-20T05:53:31;5.03;;;3.42;;
50205;SDS011;36098;48.390;10.856;2022-12-20T05:55:57;4.07;;;3.30;;
50205;SDS011;36098;48.390;10.856;2022-12-20T05:58:23;3.70;;;3.28;;
50205;SDS011;36098;48.390;10.856;2022-12-20T06:00:48;4.75;;;3.30;;
50205;SDS011;36098;48.390;10.856;2022-12-20T06:03:14;3.80;;;3.10;;
50205;SDS011;36098;48.390;10.856;2022-12-20T06:05:39;4.40;;;3.22;;
50205;SDS011;36098;48.390;10.856;2022-12-20T06:08:06;7.88;;;3.20;;
50205;SDS011;36098;48.390;10.856;2022-12-20T06:10:33;6.35;;;3.50;;
50205;SDS011;36098;48.390;10.856;2022-12-20T06:12:59;8.57;;;3.80;;
50205;SDS011;36098;48.390;10.856;2022-12-20T06:15:24;8.25;;;3.47;;
50205;SDS011;36098;48.390;10.856;2022-12-20T06:17:50;5.07;;;3.47;;
50205;SDS011;36098;48.390;10.856;2022-12-20T06:20:15;6.40;;;3.35;;
50205;SDS011;36098;48.390;10.856;2022-12-20T06:22:40;6.03;;;3.50;;
50205;SDS011;36098;48.390;10.856;2022-12-20T06:25:05;4.53;;;3.45;;
50205;SDS011;36098;48.390;10.856;2022-12-20T06:27:33;8.32;;;3.05;;
50205;SDS011;36098;48.390;10.856;2022-12-20T06:29:58;4.43;;;3.10;;
50205;SDS011;36098;48.390;10.856;2022-12-20T06:32:24;7.38;;;3.25;;
50205;SDS011;36098;48.390;10.856;2022-12-20T06:34:49;7.85;;;3.22;;
50205;SDS011;36098;48.390;10.856;2022-12-20T06:37:15;6.65;;;3.72;;
50205;SDS011;36098;48.390;10.856;2022-12-20T06:39:40;6.60;;;3.33;;
50205;SDS011;36098;48.390;10.856;2022-12-20T06:42:05;5.95;;;3.05;;
50205;SDS011;36098;48.390;10.856;2022-12-20T06:44:31;4.43;;;3.15;;
50205;SDS011;36098;48.390;10.856;2022-12-20T06:46:56;3.92;;;2.78;;
50205;SDS011;36098;48.390;10.856;2022-12-20T06:49:21;6.40;;;3.40;;
50205;SDS011;36098;48.390;10.856;2022-12-20T06:51:47;4.47;;;3.00;;
50205;SDS011;36098;48.390;10.856;2022-12-20T06:54:12;4.63;;;3.00;;
50205;SDS011;36098;48.390;10.856;2022-12-20T06:56:38;4.55;;;2.88;;
50205;SDS011;36098;48.390;10.856;2022-12-20T06:59:03;3.47;;;2.78;;
50205;SDS011;36098;48.390;10.856;2022-12-20T07:01:29;6.15;;;3.10;;
50205;SDS011;36098;48.390;10.856;2022-12-20T07:03:54;8.05;;;3.20;;
50205;SDS011;36098;48.390;10.856;2022-12-20T07:06:20;5.65;;;2.88;;
50205;SDS011;36098;48.390;10.856;2022-12-20T07:08:45;6.35;;;2.75;;
50205;SDS011;36098;48.390;10.856;2022-12-20T07:11:10;3.85;;;2.80;;
50205;SDS011;36098;48.390;10.856;2022-12-20T07:13:36;7.63;;;3.00;;
50205;SDS011;36098;48.390;10.856;2022-12-20T07:16:02;4.75;;;3.00;;
50205;SDS011;36098;48.390;10.856;2022-12-20T07:18:28;4.90;;;3.13;;
50205;SDS011;36098;48.390;10.856;2022-12-20T07:20:57;3.67;;;2.67;;
50205;SDS011;36098;48.390;10.856;2022-12-20T07:23:23;4.32;;;3.00;;
50205;SDS011;36098;48.390;10.856;2022-12-20T07:25:55;5.25;;;2.58;;
50205;SDS011;36098;48.390;10.856;2022-12-20T07:28:23;4.47;;;2.75;;
50205;SDS011;36098;48.390;10.856;2022-12-20T07:30:49;4.10;;;2.92;;
50205;SDS011;36098;48.390;10.856;2022-12-20T07:33:14;5.10;;;2.58;;
50205;SDS011;36098;48.390;10.856;2022-12-20T07:35:39;6.05;;;3.10;;
50205;SDS011;36098;48.390;10.856;2022-12-20T07:38:05;6.25;;;2.50;;
50205;SDS011;36098;48.390;10.856;2022-12-20T07:40:30;4.82;;;3.00;;
50205;SDS011;36098;48.390;10.856;2022-12-20T07:42:55;2.90;;;2.40;;
50205;SDS011;36098;48.390;10.856;2022-12-20T07:45:21;4.15;;;2.80;;
50205;SDS011;36098;48.390;10.856;2022-12-20T07:47:46;4.28;;;2.50;;
50205;SDS011;36098;48.390;10.856;2022-12-20T07:50:12;5.22;;;2.88;;
50205;SDS011;36098;48.390;10.856;2022-12-20T07:52:37;4.03;;;2.45;;
50205;SDS011;36098;48.390;10.856;2022-12-20T07:55:06;5.70;;;2.90;;
50205;SDS011;36098;48.390;10.856;2022-12-20T07:57:39;4.03;;;2.47;;
50205;SDS011;36098;48.390;10.856;2022-12-20T08:00:10;2.70;;;2.28;;
50205;SDS011;36098;48.390;10.856;2022-12-20T08:02:38;5.75;;;2.50;;
50205;SDS011;36098;48.390;10.856;2022-12-20T08:05:09;3.20;;;2.50;;
50205;SDS011;36098;48.390;10.856;2022-12-20T08:07:35;4.80;;;3.08;;
50205;SDS011;36098;48.390;10.856;2022-12-20T08:10:03;2.78;;;2.30;;
50205;SDS011;36098;48.390;10.856;2022-12-20T08:12:30;3.20;;;2.30;;
50205;SDS011;36098;48.390;10.856;2022-12-20T08:14:57;3.03;;;2.45;;
50205;SDS011;36098;48.390;10.856;2022-12-20T08:17:23;3.70;;;2.40;;
50205;SDS011;36098;48.390;10.856;2022-12-20T08:19:49;4.93;;;2.63;;
50205;SDS011;36098;48.390;10.856;2022-12-20T08:22:18;3.30;;;2.42;;
50205;SDS011;36098;48.390;10.856;2022-12-20T08:24:43;3.78;;;2.47;;
50205;SDS011;36098;48.390;10.856;2022-12-20T08:27:09;2.42;;;2.17;;
50205;SDS011;36098;48.390;10.856;2022-12-20T08:29:34;4.30;;;2.58;;
50205;SDS011;36098;48.390;10.856;2022-12-20T08:31:59;3.75;;;2.53;;
50205;SDS011;36098;48.390;10.856;2022-12-20T08:34:25;4.32;;;2.65;;
50205;SDS011;36098;48.390;10.856;2022-12-20T08:36:50;5.13;;;2.40;;
50205;SDS011;36098;48.390;10.856;2022-12-20T08:39:15;2.78;;;2.45;;
50205;SDS011;36098;48.390;10.856;2022-12-20T08:41:41;4.05;;;2.25;;
50205;SDS011;36098;48.390;10.856;2022-12-20T08:44:06;3.13;;;2.35;;
50205;SDS011;36098;48.390;10.856;2022-12-20T08:46:32;3.47;;;2.55;;
50205;SDS011;36098;48.390;10.856;2022-12-20T08:48:57;3.50;;;2.50;;
50205;SDS011;36098;48.390;10.856;2022-12-20T08:51:22;3.63;;;2.28;;
50205;SDS011;36098;48.390;10.856;2022-12-20T08:53:48;4.00;;;2.67;;
50205;SDS011;36098;48.390;10.856;2022-12-20T08:56:14;4.05;;;2.40;;
50205;SDS011;36098;48.390;10.856;2022-12-20T08:58:41;4.70;;;2.65;;
50205;SDS011;36098;48.390;10.856;2022-12-20T09:01:09;4.07;;;2.72;;
50205;SDS011;36098;48.390;10.856;2022-12-20T09:03:36;3.17;;;2.50;;
50205;SDS011;36098;48.390;10.856;2022-12-20T09:06:13;2.80;;;2.28;;
50205;SDS011;36098;48.390;10.856;2022-12-20T09:08:40;2.63;;;2.25;;
50205;SDS011;36098;48.390;10.856;2022-12-20T09:11:11;5.22;;;2.67;;
50205;SDS011;36098;48.390;10.856;2022-12-20T09:13:45;5.30;;;2.70;;
50205;SDS011;36098;48.390;10.856;2022-12-20T09:16:12;4.32;;;2.47;;
50205;SDS011;36098;48.390;10.856;2022-12-20T09:18:39;4.10;;;2.60;;
50205;SDS011;36098;48.390;10.856;2022-12-20T09:21:05;4.07;;;3.08;;
50205;SDS011;36098;48.390;10.856;2022-12-20T09:23:32;4.20;;;2.85;;
50205;SDS011;36098;48.390;10.856;2022-12-20T09:26:03;3.33;;;2.63;;
50205;SDS011;36098;48.390;10.856;2022-12-20T09:28:30;5.45;;;2.95;;
50205;SDS011;36098;48.390;10.856;2022-12-20T09:31:03;3.45;;;2.80;;
50205;SDS011;36098;48.390;10.856;2022-12-20T09:33:32;4.18;;;3.00;;
50205;SDS011;36098;48.390;10.856;2022-12-20T09:35:59;5.80;;;3.08;;
50205;SDS011;36098;48.390;10.856;2022-12-20T09:38:26;5.45;;;3.33;;
50205;SDS011;36098;48.390;10.856;2022-12-20T09:40:53;4.95;;;2.72;;
50205;SDS011;36098;48.390;10.856;2022-12-20T09:43:20;4.10;;;2.90;;
50205;SDS011;36098;48.390;10.856;2022-12-20T09:45:47;4.72;;;2.95;;
50205;SDS011;36098;48.390;10.856;2022-12-20T09:48:19;4.13;;;3.05;;
50205;SDS011;36098;48.390;10.856;2022-12-20T09:50:53;5.47;;;3.40;;
50205;SDS011;36098;48.390;10.856;2022-12-20T09:56:06;4.38;;;3.33;;
50205;SDS011;36098;48.390;10.856;2022-12-20T09:58:59;4.38;;;2.95;;
50205;SDS011;36098;48.390;10.856;2022-12-20T10:01:47;6.32;;;3.25;;
50205;SDS011;36098;48.390;10.856;2022-12-20T10:04:17;3.65;;;2.80;;
50205;SDS011;36098;48.390;10.856;2022-12-20T10:06:54;3.85;;;3.17;;
50205;SDS011;36098;48.390;10.856;2022-12-20T10:23:16;5.05;;;3.47;;
50205;SDS011;36098;48.390;10.856;2022-12-20T10:25:49;5.03;;;3.40;;
50205;SDS011;36098;48.390;10.856;2022-12-20T10:28:17;5.03;;;3.42;;
50205;SDS011;36098;48.390;10.856;2022-12-20T10:30:48;4.88;;;3.00;;
50205;SDS011;36098;48.390;10.856;2022-12-20T10:33:17;6.95;;;3.35;;
50205;SDS011;36098;48.390;10.856;2022-12-20T10:35:44;4.47;;;3.08;;
50205;SDS011;36098;48.390;10.856;2022-12-20T10:38:11;5.20;;;3.30;;
50205;SDS011;36098;48.390;10.856;2022-12-20T10:40:42;4.72;;;3.25;;
50205;SDS011;36098;48.390;10.856;2022-12-20T10:43:14;5.13;;;3.50;;
50205;SDS011;36098;48.390;10.856;2022-12-20T10:45:43;5.15;;;3.50;;
50205;SDS011;36098;48.390;10.856;2022-12-20T10:48:27;4.68;;;3.03;;
50205;SDS011;36098;48.390;10.856;2022-12-20T10:50:56;3.78;;;3.15;;
50205;SDS011;36098;48.390;10.856;2022-12-20T10:53:23;4.60;;;3.30;;
50205;SDS011;36098;48.390;10.856;2022-12-20T10:55:51;5.75;;;3.22;;
50205;SDS011;36098;48.390;10.856;2022-12-20T11:00:54;5.85;;;3.20;;
50205;SDS011;36098;48.390;10.856;2022-12-20T11:03:28;4.00;;;3.10;;
50205;SDS011;36098;48.390;10.856;2022-12-20T11:05:58;4.93;;;3.40;;
50205;SDS011;36098;48.390;10.856;2022-12-20T11:08:27;5.13;;;3.60;;
50205;SDS011;36098;48.390;10.856;2022-12-20T11:13:59;3.70;;;2.95;;
50205;SDS011;36098;48.390;10.856;2022-12-20T11:16:38;3.42;;;2.83;;
50205;SDS011;36098;48.390;10.856;2022-12-20T11:19:12;7.13;;;3.20;;
50205;SDS011;36098;48.390;10.856;2022-12-20T11:27:34;4.45;;;3.28;;
50205;SDS011;36098;48.390;10.856;2022-12-20T11:32:37;4.78;;;3.40;;
50205;SDS011;36098;48.390;10.856;2022-12-20T11:35:24;4.15;;;3.20;;
50205;SDS011;36098;48.390;10.856;2022-12-20T11:40:31;6.55;;;3.50;;
50205;SDS011;36098;48.390;10.856;2022-12-20T11:51:22;4.70;;;3.28;;
50205;SDS011;36098;48.390;10.856;2022-12-20T11:56:42;4.50;;;3.30;;
50205;SDS011;36098;48.390;10.856;2022-12-20T11:59:25;4.82;;;3.33;;
50205;SDS011;36098;48.390;10.856;2022-12-20T12:02:20;4.93;;;3.00;;
50205;SDS011;36098;48.390;10.856;2022-12-20T12:07:57;5.22;;;3.00;;
50205;SDS011;36098;48.390;10.856;2022-12-20T12:10:31;3.95;;;3.00;;
50205;SDS011;36098;48.390;10.856;2022-12-20T12:13:05;4.68;;;3.25;;
50205;SDS011;36098;48.390;10.856;2022-12-20T12:15:46;5.40;;;3.22;;
50205;SDS011;36098;48.390;10.856;2022-12-20T12:18:23;8.95;;;3.10;;
50205;SDS011;36098;48.390;10.856;2022-12-20T12:26:41;4.55;;;3.30;;
50205;SDS011;36098;48.390;10.856;2022-12-20T12:31:35;4.03;;;2.90;;
50205;SDS011;36098;48.390;10.856;2022-12-20T12:45:35;4.45;;;3.08;;
50205;SDS011;36098;48.390;10.856;2022-12-20T12:48:18;4.03;;;3.13;;
50205;SDS011;36098;48.390;10.856;2022-12-20T12:50:48;5.47;;;3.00;;
50205;SDS011;36098;48.390;10.856;2022-12-20T12:53:18;4.45;;;3.28;;
50205;SDS011;36098;48.390;10.856;2022-12-20T12:55:47;10.45;;;4.10;;
50205;SDS011;36098;48.390;10.856;2022-12-20T12:58:35;5.88;;;3.17;;
50205;SDS011;36098;48.390;10.856;2022-12-20T13:01:04;5.80;;;3.10;;
50205;SDS011;36098;48.390;10.856;2022-12-20T13:06:50;8.43;;;3.30;;
50205;SDS011;36098;48.390;10.856;2022-12-20T13:09:19;5.63;;;3.40;;
50205;SDS011;36098;48.390;10.856;2022-12-20T13:11:52;9.05;;;3.40;;
50205;SDS011;36098;48.390;10.856;2022-12-20T13:16:53;4.35;;;3.05;;
50205;SDS011;36098;48.390;10.856;2022-12-20T13:19:39;9.13;;;3.15;;
50205;SDS011;36098;48.390;10.856;2022-12-20T13:27:48;8.07;;;3.30;;
50205;SDS011;36098;48.390;10.856;2022-12-20T13:37:52;7.78;;;3.40;;
50205;SDS011;36098;48.390;10.856;2022-12-20T13:40:35;4.80;;;3.03;;
50205;SDS011;36098;48.390;10.856;2022-12-20T13:45:31;4.28;;;3.20;;
50205;SDS011;36098;48.390;10.856;2022-12-20T13:47:59;5.20;;;3.33;;
50205;SDS011;36098;48.390;10.856;2022-12-20T13:50:31;5.18;;;3.40;;
50205;SDS011;36098;48.390;10.856;2022-12-20T13:53:03;12.05;;;3.58;;
50205;SDS011;36098;48.390;10.856;2022-12-20T13:55:31;7.28;;;3.40;;
50205;SDS011;36098;48.390;10.856;2022-12-20T13:58:09;8.18;;;3.55;;
50205;SDS011;36098;48.390;10.856;2022-12-20T14:00:37;4.75;;;2.90;;
50205;SDS011;36098;48.390;10.856;2022-12-20T14:03:02;7.03;;;3.03;;
50205;SDS011;36098;48.390;10.856;2022-12-20T14:05:32;10.32;;;3.33;;
50205;SDS011;36098;48.390;10.856;2022-12-20T14:08:07;8.20;;;2.97;;
50205;SDS011;36098;48.390;10.856;2022-12-20T14:10:37;11.73;;;3.33;;
50205;SDS011;36098;48.390;10.856;2022-12-20T14:13:12;5.93;;;3.38;;
50205;SDS011;36098;48.390;10.856;2022-12-20T14:15:44;6.60;;;3.13;;
50205;SDS011;36098;48.390;10.856;2022-12-20T14:18:20;4.65;;;3.20;;
50205;SDS011;36098;48.390;10.856;2022-12-20T14:20:58;9.27;;;3.25;;
50205;SDS011;36098;48.390;10.856;2022-12-20T14:23:27;5.47;;;3.42;;
50205;SDS011;36098;48.390;10.856;2022-12-20T14:26:00;7.18;;;3.22;;
50205;SDS011;36098;48.390;10.856;2022-12-20T14:28:30;4.40;;;3.20;;
50205;SDS011;36098;48.390;10.856;2022-12-20T14:31:01;8.98;;;3.10;;
50205;SDS011;36098;48.390;10.856;2022-12-20T14:36:09;7.55;;;3.80;;
50205;SDS011;36098;48.390;10.856;2022-12-20T14:38:46;7.15;;;3.30;;
50205;SDS011;36098;48.390;10.856;2022-12-20T14:44:15;5.35;;;2.88;;
50205;SDS011;36098;48.390;10.856;2022-12-20T14:49:21;5.90;;;3.47;;
50205;SDS011;36098;48.390;10.856;2022-12-20T14:51:50;6.47;;;3.20;;
50205;SDS011;36098;48.390;10.856;2022-12-20T14:56:47;4.63;;;2.83;;
50205;SDS011;36098;48.390;10.856;2022-12-20T14:59:16;4.88;;;3.40;;
50205;SDS011;36098;48.390;10.856;2022-12-20T15:01:48;7.83;;;3.30;;
50205;SDS011;36098;48.390;10.856;2022-12-20T15:04:31;4.78;;;3.05;;
50205;SDS011;36098;48.390;10.856;2022-12-20T15:06:58;5.32;;;3.13;;
50205;SDS011;36098;48.390;10.856;2022-12-20T15:09:25;8.77;;;3.75;;
50205;SDS011;36098;48.390;10.856;2022-12-20T15:11:50;9.32;;;4.22;;
50205;SDS011;36098;48.390;10.856;2022-12-20T15:14:29;5.57;;;3.20;;
50205;SDS011;36098;48.390;10.856;2022-12-20T15:17:10;6.97;;;3.67;;
50205;SDS011;36098;48.390;10.856;2022-12-20T15:19:37;5.93;;;3.30;;
50205;SDS011;36098;48.390;10.856;2022-12-20T15:22:02;8.25;;;3.33;;
50205;SDS011;36098;48.390;10.856;2022-12-20T15:24:28;8.05;;;3.60;;
50205;SDS011;36098;48.390;10.856;2022-12-20T15:26:54;6.93;;;3.65;;
50205;SDS011;36098;48.390;10.856;2022-12-20T15:29:24;7.38;;;3.50;;
50205;SDS011;36098;48.390;10.856;2022-12-20T15:31:52;6.85;;;3.58;;
50205;SDS011;36098;48.390;10.856;2022-12-20T15:34:33;6.25;;;3.63;;
50205;SDS011;36098;48.390;10.856;2022-12-20T15:37:00;7.43;;;3.90;;
50205;SDS011;36098;48.390;10.856;2022-12-20T15:39:26;5.38;;;3.53;;
50205;SDS011;36098;48.390;10.856;2022-12-20T15:41:52;6.00;;;3.53;;
50205;SDS011;36098;48.390;10.856;2022-12-20T15:44:19;7.07;;;3.42;;
50205;SDS011;36098;48.390;10.856;2022-12-20T15:46:46;4.80;;;3.47;;
50205;SDS011;36098;48.390;10.856;2022-12-20T15:49:13;10.45;;;3.92;;
50205;SDS011;36098;48.390;10.856;2022-12-20T15:51:39;7.65;;;3.67;;
50205;SDS011;36098;48.390;10.856;2022-12-20T15:54:18;7.68;;;3.65;;
50205;SDS011;36098;48.390;10.856;2022-12-20T15:56:48;13.00;;;3.92;;
50205;SDS011;36098;48.390;10.856;2022-12-20T15:59:13;6.78;;;3.75;;
50205;SDS011;36098;48.390;10.856;2022-12-20T16:01:39;6.95;;;3.55;;
50205;SDS011;36098;48.390;10.856;2022-12-20T16:04:04;7.22;;;3.53;;
50205;SDS011;36098;48.390;10.856;2022-12-20T16:06:31;6.13;;;3.20;;
50205;SDS011;36098;48.390;10.856;2022-12-20T16:08:57;6.57;;;3.40;;
50205;SDS011;36098;48.390;10.856;2022-12-20T16:11:23;9.40;;;3.95;;
50205;SDS011;36098;48.390;10.856;2022-12-20T16:13:54;8.38;;;3.53;;
50205;SDS011;36098;48.390;10.856;2022-12-20T16:16:21;9.50;;;3.50;;
50205;SDS011;36098;48.390;10.856;2022-12-20T16:18:48;7.18;;;3.60;;
50205;SDS011;36098;48.390;10.856;2022-12-20T16:21:17;9.40;;;3.65;;
50205;SDS011;36098;48.390;10.856;2022-12-20T16:23:44;5.22;;;3.55;;
50205;SDS011;36098;48.390;10.856;2022-12-20T16:26:13;8.25;;;3.70;;
50205;SDS011;36098;48.390;10.856;2022-12-20T16:28:40;5.40;;;3.15;;
50205;SDS011;36098;48.390;10.856;2022-12-20T16:31:48;7.35;;;3.60;;
50205;SDS011;36098;48.390;10.856;2022-12-20T16:34:00;6.10;;;3.08;;